Aérodrome :
LOGIN :

S'inscrire | Disclaimer

   EN    FR    IT 

 










Légende :    VFR   VFR Marginal   IFR   IFR Intensif   IFR Très Intensif
Visi : 
Plafond : 
>= 8 km
>= 3000ft
5 à 8 km
1000 à 3000 ft
1500m à 5 km
500 à 1000 ft
800 à 1500m
200 à 500 ft
< 800m
< 200 ft
Symboles :   Orages  Brouillard  Fortes neiges  Fortes précipitations  Vent > 20 kt
SIGMETs :   Divers  Orages  Givrage  Turbulence  Onde Orograph.  Cendres Volcan.







- Altitude de l'aérodrome : 51 ft
- Code IATA : GWT


EDXW - Westerland-Sylt Island

METARs EXPIRÉS :
  • 241420Z 28020KT 9999 FEW023 SCT035 16/12 Q1008
  • 241350Z 28018KT 9999 FEW016 SCT034 16/12 Q1008
  • 241320Z 27017KT 9999 FEW016 SCT029 16/15 Q1008
  • 241250Z 28019KT 9999 FEW019 BKN180 16/16 Q1008
  • 241220Z 28015KT 9999 FEW007 BKN180 15/15 Q1008
  • 241200Z 28014KT 9999 FEW007 SCT180 15/15 Q1007 RMK ATIS SIE
  • 241150Z 28016KT 7000 -RA SCT005 BKN007 14/14 Q1007

Prévision TAF périmée.
Pas de NOTAMs connus pour ce terrain.



MET'MAP, la Météo Aéronautique d'un coup d'oeil ! - Copyright ORBIFLY Décembre 2007 - Disclaimer

ORBIFLY MET'MAP TEAM :

Programmation & Développement : Alexandra Zaïnal
Conception & Développement : Baudouin d'Aumeries
Co-Programmation & Développement : Marc-Olivier Méhu
Soutien technique & logistique : Manuel Goepfert

Contact : metmap@orbifly.com




SOURCES & CREDITS :

   NOAA